sensor_id;sensor_type;location;lat;lon;timestamp;P1;durP1;ratioP1;P2;durP2;ratioP2
54945;SDS011;40846;44.788;20.486;2024-03-02T00:02:01;32.05;;;17.85;;
54945;SDS011;40846;44.788;20.486;2024-03-02T00:04:26;31.48;;;17.38;;
54945;SDS011;40846;44.788;20.486;2024-03-02T00:06:53;26.58;;;16.35;;
54945;SDS011;40846;44.788;20.486;2024-03-02T00:09:22;24.58;;;15.73;;
54945;SDS011;40846;44.788;20.486;2024-03-02T00:11:48;31.40;;;17.27;;
54945;SDS011;40846;44.788;20.486;2024-03-02T00:14:14;25.23;;;17.73;;
54945;SDS011;40846;44.788;20.486;2024-03-02T00:16:41;29.35;;;17.05;;
54945;SDS011;40846;44.788;20.486;2024-03-02T00:19:07;28.40;;;18.95;;
54945;SDS011;40846;44.788;20.486;2024-03-02T00:21:35;31.95;;;18.63;;
54945;SDS011;40846;44.788;20.486;2024-03-02T00:24:01;29.77;;;19.08;;
54945;SDS011;40846;44.788;20.486;2024-03-02T00:26:32;29.60;;;16.40;;
54945;SDS011;40846;44.788;20.486;2024-03-02T00:28:58;29.83;;;18.60;;
54945;SDS011;40846;44.788;20.486;2024-03-02T00:31:25;30.05;;;19.67;;
54945;SDS011;40846;44.788;20.486;2024-03-02T00:33:51;29.70;;;17.77;;
54945;SDS011;40846;44.788;20.486;2024-03-02T00:36:24;32.00;;;19.73;;
54945;SDS011;40846;44.788;20.486;2024-03-02T00:38:52;27.65;;;18.55;;
54945;SDS011;40846;44.788;20.486;2024-03-02T00:41:27;30.23;;;18.67;;
54945;SDS011;40846;44.788;20.486;2024-03-02T00:46:29;33.38;;;20.52;;
54945;SDS011;40846;44.788;20.486;2024-03-02T00:49:00;31.95;;;19.17;;
54945;SDS011;40846;44.788;20.486;2024-03-02T00:51:28;41.25;;;21.95;;
54945;SDS011;40846;44.788;20.486;2024-03-02T00:53:57;28.08;;;19.23;;
54945;SDS011;40846;44.788;20.486;2024-03-02T00:56:23;32.20;;;20.10;;
54945;SDS011;40846;44.788;20.486;2024-03-02T00:58:50;30.50;;;18.48;;
54945;SDS011;40846;44.788;20.486;2024-03-02T01:01:16;28.23;;;17.48;;
54945;SDS011;40846;44.788;20.486;2024-03-02T01:03:42;28.25;;;18.75;;
54945;SDS011;40846;44.788;20.486;2024-03-02T01:06:08;31.88;;;21.08;;
54945;SDS011;40846;44.788;20.486;2024-03-02T01:08:35;31.10;;;18.58;;
54945;SDS011;40846;44.788;20.486;2024-03-02T01:11:02;26.90;;;17.08;;
54945;SDS011;40846;44.788;20.486;2024-03-02T01:13:28;28.35;;;18.10;;
54945;SDS011;40846;44.788;20.486;2024-03-02T01:15:54;25.98;;;17.48;;
54945;SDS011;40846;44.788;20.486;2024-03-02T01:18:21;34.15;;;17.92;;
54945;SDS011;40846;44.788;20.486;2024-03-02T01:20:47;27.98;;;18.15;;
54945;SDS011;40846;44.788;20.486;2024-03-02T01:23:16;27.50;;;16.80;;
54945;SDS011;40846;44.788;20.486;2024-03-02T01:25:42;26.27;;;16.55;;
54945;SDS011;40846;44.788;20.486;2024-03-02T01:28:08;20.60;;;13.00;;
54945;SDS011;40846;44.788;20.486;2024-03-02T01:30:34;24.50;;;14.93;;
54945;SDS011;40846;44.788;20.486;2024-03-02T01:33:00;25.08;;;14.68;;
54945;SDS011;40846;44.788;20.486;2024-03-02T01:35:27;21.77;;;15.05;;
54945;SDS011;40846;44.788;20.486;2024-03-02T01:37:53;27.73;;;13.25;;
54945;SDS011;40846;44.788;20.486;2024-03-02T01:40:19;24.83;;;15.13;;
54945;SDS011;40846;44.788;20.486;2024-03-02T01:42:46;19.30;;;14.68;;
54945;SDS011;40846;44.788;20.486;2024-03-02T01:45:12;20.95;;;13.35;;
54945;SDS011;40846;44.788;20.486;2024-03-02T01:47:38;20.23;;;13.23;;
54945;SDS011;40846;44.788;20.486;2024-03-02T01:50:04;21.30;;;14.07;;
54945;SDS011;40846;44.788;20.486;2024-03-02T01:52:30;24.88;;;13.85;;
54945;SDS011;40846;44.788;20.486;2024-03-02T01:54:56;21.00;;;12.88;;
54945;SDS011;40846;44.788;20.486;2024-03-02T01:57:22;23.23;;;11.93;;
54945;SDS011;40846;44.788;20.486;2024-03-02T01:59:49;21.33;;;13.00;;
54945;SDS011;40846;44.788;20.486;2024-03-02T02:02:16;19.92;;;13.45;;
54945;SDS011;40846;44.788;20.486;2024-03-02T02:04:42;20.75;;;12.25;;
54945;SDS011;40846;44.788;20.486;2024-03-02T02:07:09;22.25;;;12.60;;
54945;SDS011;40846;44.788;20.486;2024-03-02T02:09:35;20.52;;;12.93;;
54945;SDS011;40846;44.788;20.486;2024-03-02T02:12:02;17.73;;;12.07;;
54945;SDS011;40846;44.788;20.486;2024-03-02T02:14:31;16.30;;;11.70;;
54945;SDS011;40846;44.788;20.486;2024-03-02T02:16:57;18.63;;;12.05;;
54945;SDS011;40846;44.788;20.486;2024-03-02T02:19:23;18.25;;;12.55;;
54945;SDS011;40846;44.788;20.486;2024-03-02T02:21:49;20.15;;;12.65;;
54945;SDS011;40846;44.788;20.486;2024-03-02T02:24:15;22.70;;;12.57;;
54945;SDS011;40846;44.788;20.486;2024-03-02T02:26:41;17.80;;;12.35;;
54945;SDS011;40846;44.788;20.486;2024-03-02T02:29:07;18.23;;;12.00;;
54945;SDS011;40846;44.788;20.486;2024-03-02T02:31:39;16.13;;;11.20;;
54945;SDS011;40846;44.788;20.486;2024-03-02T02:36:36;16.67;;;10.60;;
54945;SDS011;40846;44.788;20.486;2024-03-02T02:39:03;16.77;;;11.30;;
54945;SDS011;40846;44.788;20.486;2024-03-02T02:41:30;16.98;;;11.93;;
54945;SDS011;40846;44.788;20.486;2024-03-02T02:43:56;18.23;;;11.70;;
54945;SDS011;40846;44.788;20.486;2024-03-02T02:46:22;21.50;;;12.52;;
54945;SDS011;40846;44.788;20.486;2024-03-02T02:48:48;16.77;;;11.20;;
54945;SDS011;40846;44.788;20.486;2024-03-02T02:51:16;14.60;;;9.75;;
54945;SDS011;40846;44.788;20.486;2024-03-02T02:53:45;14.93;;;10.23;;
54945;SDS011;40846;44.788;20.486;2024-03-02T02:56:11;14.70;;;10.75;;
54945;SDS011;40846;44.788;20.486;2024-03-02T02:58:37;14.82;;;10.18;;
54945;SDS011;40846;44.788;20.486;2024-03-02T03:01:04;15.40;;;10.23;;
54945;SDS011;40846;44.788;20.486;2024-03-02T03:03:30;14.70;;;10.07;;
54945;SDS011;40846;44.788;20.486;2024-03-02T03:05:56;15.45;;;10.30;;
54945;SDS011;40846;44.788;20.486;2024-03-02T03:08:22;16.02;;;10.18;;
54945;SDS011;40846;44.788;20.486;2024-03-02T03:10:48;22.67;;;10.57;;
54945;SDS011;40846;44.788;20.486;2024-03-02T03:13:14;14.18;;;9.75;;
54945;SDS011;40846;44.788;20.486;2024-03-02T03:15:40;14.10;;;9.15;;
54945;SDS011;40846;44.788;20.486;2024-03-02T03:18:07;12.82;;;9.13;;
54945;SDS011;40846;44.788;20.486;2024-03-02T03:20:35;12.20;;;8.85;;
54945;SDS011;40846;44.788;20.486;2024-03-02T03:23:01;14.23;;;9.75;;
54945;SDS011;40846;44.788;20.486;2024-03-02T03:25:29;15.07;;;9.52;;
54945;SDS011;40846;44.788;20.486;2024-03-02T03:27:55;10.68;;;7.82;;
54945;SDS011;40846;44.788;20.486;2024-03-02T03:30:21;14.18;;;9.13;;
54945;SDS011;40846;44.788;20.486;2024-03-02T03:32:47;14.55;;;8.30;;
54945;SDS011;40846;44.788;20.486;2024-03-02T03:35:13;14.57;;;9.07;;
54945;SDS011;40846;44.788;20.486;2024-03-02T03:37:41;11.23;;;7.78;;
54945;SDS011;40846;44.788;20.486;2024-03-02T03:40:07;11.32;;;6.78;;
54945;SDS011;40846;44.788;20.486;2024-03-02T03:42:36;12.50;;;7.82;;
54945;SDS011;40846;44.788;20.486;2024-03-02T03:45:03;10.80;;;8.02;;
54945;SDS011;40846;44.788;20.486;2024-03-02T03:47:30;10.15;;;7.30;;
54945;SDS011;40846;44.788;20.486;2024-03-02T03:49:57;8.57;;;6.00;;
54945;SDS011;40846;44.788;20.486;2024-03-02T03:52:23;10.55;;;7.43;;
54945;SDS011;40846;44.788;20.486;2024-03-02T03:54:49;9.35;;;7.07;;
54945;SDS011;40846;44.788;20.486;2024-03-02T03:57:15;11.40;;;7.53;;
54945;SDS011;40846;44.788;20.486;2024-03-02T03:59:41;12.85;;;7.85;;
54945;SDS011;40846;44.788;20.486;2024-03-02T04:02:08;10.85;;;6.95;;
54945;SDS011;40846;44.788;20.486;2024-03-02T04:04:34;9.45;;;6.20;;
54945;SDS011;40846;44.788;20.486;2024-03-02T04:07:00;9.35;;;6.30;;
54945;SDS011;40846;44.788;20.486;2024-03-02T04:09:26;9.80;;;6.32;;
54945;SDS011;40846;44.788;20.486;2024-03-02T04:11:53;10.40;;;7.15;;
54945;SDS011;40846;44.788;20.486;2024-03-02T04:14:19;9.60;;;6.55;;
54945;SDS011;40846;44.788;20.486;2024-03-02T04:16:45;11.77;;;7.25;;
54945;SDS011;40846;44.788;20.486;2024-03-02T04:19:10;9.88;;;6.53;;
54945;SDS011;40846;44.788;20.486;2024-03-02T04:21:37;9.70;;;6.65;;
54945;SDS011;40846;44.788;20.486;2024-03-02T04:24:03;8.35;;;5.50;;
54945;SDS011;40846;44.788;20.486;2024-03-02T04:26:29;9.73;;;5.88;;
54945;SDS011;40846;44.788;20.486;2024-03-02T04:28:55;8.00;;;5.30;;
54945;SDS011;40846;44.788;20.486;2024-03-02T04:31:21;8.60;;;6.40;;
54945;SDS011;40846;44.788;20.486;2024-03-02T04:33:47;8.25;;;6.05;;
54945;SDS011;40846;44.788;20.486;2024-03-02T04:36:13;8.05;;;5.80;;
54945;SDS011;40846;44.788;20.486;2024-03-02T04:38:40;8.25;;;5.38;;
54945;SDS011;40846;44.788;20.486;2024-03-02T04:41:06;7.88;;;5.93;;
54945;SDS011;40846;44.788;20.486;2024-03-02T04:43:32;7.28;;;5.30;;
54945;SDS011;40846;44.788;20.486;2024-03-02T04:45:58;10.82;;;6.05;;
54945;SDS011;40846;44.788;20.486;2024-03-02T04:48:24;9.07;;;5.97;;
54945;SDS011;40846;44.788;20.486;2024-03-02T04:50:50;8.43;;;5.72;;
54945;SDS011;40846;44.788;20.486;2024-03-02T04:53:17;11.52;;;6.32;;
54945;SDS011;40846;44.788;20.486;2024-03-02T04:55:43;9.57;;;6.03;;
54945;SDS011;40846;44.788;20.486;2024-03-02T04:58:09;9.68;;;6.15;;
54945;SDS011;40846;44.788;20.486;2024-03-02T05:00:35;7.40;;;5.78;;
54945;SDS011;40846;44.788;20.486;2024-03-02T05:03:02;8.93;;;5.38;;
54945;SDS011;40846;44.788;20.486;2024-03-02T05:05:29;8.15;;;4.93;;
54945;SDS011;40846;44.788;20.486;2024-03-02T05:07:55;8.45;;;5.53;;
54945;SDS011;40846;44.788;20.486;2024-03-02T05:10:21;8.25;;;5.75;;
54945;SDS011;40846;44.788;20.486;2024-03-02T05:12:47;9.13;;;5.35;;
54945;SDS011;40846;44.788;20.486;2024-03-02T05:15:24;8.73;;;4.72;;
54945;SDS011;40846;44.788;20.486;2024-03-02T05:17:50;6.88;;;4.72;;
54945;SDS011;40846;44.788;20.486;2024-03-02T05:20:16;7.53;;;5.43;;
54945;SDS011;40846;44.788;20.486;2024-03-02T05:22:42;7.30;;;5.50;;
54945;SDS011;40846;44.788;20.486;2024-03-02T05:25:09;6.68;;;4.53;;
54945;SDS011;40846;44.788;20.486;2024-03-02T05:27:35;6.60;;;4.53;;
54945;SDS011;40846;44.788;20.486;2024-03-02T05:30:02;7.22;;;4.97;;
54945;SDS011;40846;44.788;20.486;2024-03-02T05:32:28;9.15;;;4.70;;
54945;SDS011;40846;44.788;20.486;2024-03-02T05:34:54;9.93;;;4.90;;
54945;SDS011;40846;44.788;20.486;2024-03-02T05:37:23;7.32;;;4.78;;
54945;SDS011;40846;44.788;20.486;2024-03-02T05:39:51;7.53;;;4.15;;
54945;SDS011;40846;44.788;20.486;2024-03-02T05:42:18;7.50;;;4.85;;
54945;SDS011;40846;44.788;20.486;2024-03-02T05:44:44;7.10;;;4.82;;
54945;SDS011;40846;44.788;20.486;2024-03-02T05:47:10;7.85;;;5.03;;
54945;SDS011;40846;44.788;20.486;2024-03-02T05:49:36;8.63;;;4.47;;
54945;SDS011;40846;44.788;20.486;2024-03-02T05:52:01;9.85;;;4.60;;
54945;SDS011;40846;44.788;20.486;2024-03-02T05:54:28;10.52;;;4.75;;
54945;SDS011;40846;44.788;20.486;2024-03-02T05:56:53;7.72;;;4.20;;
54945;SDS011;40846;44.788;20.486;2024-03-02T05:59:19;7.07;;;4.38;;
54945;SDS011;40846;44.788;20.486;2024-03-02T06:01:46;8.15;;;4.03;;
54945;SDS011;40846;44.788;20.486;2024-03-02T06:04:12;7.22;;;4.28;;
54945;SDS011;40846;44.788;20.486;2024-03-02T06:06:38;6.78;;;3.80;;
54945;SDS011;40846;44.788;20.486;2024-03-02T06:09:05;7.97;;;4.57;;
54945;SDS011;40846;44.788;20.486;2024-03-02T06:11:37;9.48;;;4.93;;
54945;SDS011;40846;44.788;20.486;2024-03-02T06:14:04;6.20;;;3.80;;
54945;SDS011;40846;44.788;20.486;2024-03-02T06:16:31;6.97;;;4.30;;
54945;SDS011;40846;44.788;20.486;2024-03-02T06:18:57;6.97;;;4.07;;
54945;SDS011;40846;44.788;20.486;2024-03-02T06:21:23;8.45;;;4.30;;
54945;SDS011;40846;44.788;20.486;2024-03-02T06:23:49;7.15;;;3.78;;
54945;SDS011;40846;44.788;20.486;2024-03-02T06:26:15;7.70;;;4.68;;
54945;SDS011;40846;44.788;20.486;2024-03-02T06:28:41;7.40;;;4.15;;
54945;SDS011;40846;44.788;20.486;2024-03-02T06:31:08;7.88;;;4.60;;
54945;SDS011;40846;44.788;20.486;2024-03-02T06:33:34;7.40;;;4.38;;
54945;SDS011;40846;44.788;20.486;2024-03-02T06:36:00;7.53;;;4.20;;
54945;SDS011;40846;44.788;20.486;2024-03-02T06:38:26;6.65;;;3.80;;
54945;SDS011;40846;44.788;20.486;2024-03-02T06:40:52;6.35;;;3.40;;
54945;SDS011;40846;44.788;20.486;2024-03-02T06:43:17;7.47;;;3.67;;
54945;SDS011;40846;44.788;20.486;2024-03-02T06:45:43;6.65;;;4.05;;
54945;SDS011;40846;44.788;20.486;2024-03-02T06:48:09;7.30;;;3.72;;
54945;SDS011;40846;44.788;20.486;2024-03-02T06:50:35;8.55;;;3.70;;
54945;SDS011;40846;44.788;20.486;2024-03-02T06:53:01;7.78;;;3.90;;
54945;SDS011;40846;44.788;20.486;2024-03-02T06:55:29;5.15;;;3.15;;
54945;SDS011;40846;44.788;20.486;2024-03-02T06:57:55;5.80;;;3.03;;
54945;SDS011;40846;44.788;20.486;2024-03-02T07:00:20;9.23;;;4.90;;
54945;SDS011;40846;44.788;20.486;2024-03-02T07:02:46;8.27;;;4.47;;
54945;SDS011;40846;44.788;20.486;2024-03-02T07:05:12;9.13;;;4.43;;
54945;SDS011;40846;44.788;20.486;2024-03-02T07:07:38;8.80;;;4.10;;
54945;SDS011;40846;44.788;20.486;2024-03-02T07:10:04;6.20;;;3.90;;
54945;SDS011;40846;44.788;20.486;2024-03-02T07:12:30;5.30;;;3.40;;
54945;SDS011;40846;44.788;20.486;2024-03-02T07:14:57;7.88;;;4.35;;
54945;SDS011;40846;44.788;20.486;2024-03-02T07:17:29;7.38;;;4.50;;
54945;SDS011;40846;44.788;20.486;2024-03-02T07:19:55;8.90;;;4.18;;
54945;SDS011;40846;44.788;20.486;2024-03-02T07:22:21;7.22;;;4.22;;
54945;SDS011;40846;44.788;20.486;2024-03-02T07:24:48;7.45;;;3.65;;
54945;SDS011;40846;44.788;20.486;2024-03-02T07:27:14;12.18;;;3.75;;
54945;SDS011;40846;44.788;20.486;2024-03-02T07:29:41;8.55;;;3.97;;
54945;SDS011;40846;44.788;20.486;2024-03-02T07:32:08;9.20;;;3.75;;
54945;SDS011;40846;44.788;20.486;2024-03-02T07:34:34;11.00;;;4.82;;
54945;SDS011;40846;44.788;20.486;2024-03-02T07:37:00;10.10;;;4.63;;
54945;SDS011;40846;44.788;20.486;2024-03-02T07:39:26;7.00;;;3.92;;
54945;SDS011;40846;44.788;20.486;2024-03-02T07:41:52;5.88;;;3.53;;
54945;SDS011;40846;44.788;20.486;2024-03-02T07:44:18;7.30;;;4.22;;
54945;SDS011;40846;44.788;20.486;2024-03-02T07:46:45;6.38;;;3.65;;
54945;SDS011;40846;44.788;20.486;2024-03-02T07:49:12;5.82;;;3.80;;
54945;SDS011;40846;44.788;20.486;2024-03-02T07:51:39;7.03;;;4.03;;
54945;SDS011;40846;44.788;20.486;2024-03-02T07:54:05;5.82;;;3.67;;
54945;SDS011;40846;44.788;20.486;2024-03-02T07:56:31;8.23;;;3.67;;
54945;SDS011;40846;44.788;20.486;2024-03-02T07:58:57;13.10;;;4.45;;
54945;SDS011;40846;44.788;20.486;2024-03-02T08:01:26;13.23;;;4.55;;
54945;SDS011;40846;44.788;20.486;2024-03-02T08:03:54;7.28;;;4.22;;
54945;SDS011;40846;44.788;20.486;2024-03-02T08:06:22;9.60;;;5.15;;
54945;SDS011;40846;44.788;20.486;2024-03-02T08:08:48;12.90;;;4.70;;
54945;SDS011;40846;44.788;20.486;2024-03-02T08:11:13;9.77;;;5.25;;
54945;SDS011;40846;44.788;20.486;2024-03-02T08:13:39;9.73;;;5.32;;
54945;SDS011;40846;44.788;20.486;2024-03-02T08:16:05;9.20;;;4.88;;
54945;SDS011;40846;44.788;20.486;2024-03-02T08:18:34;8.20;;;4.25;;
54945;SDS011;40846;44.788;20.486;2024-03-02T08:21:00;7.40;;;4.20;;
54945;SDS011;40846;44.788;20.486;2024-03-02T08:23:27;9.60;;;4.40;;
54945;SDS011;40846;44.788;20.486;2024-03-02T08:25:53;7.28;;;3.92;;
54945;SDS011;40846;44.788;20.486;2024-03-02T08:28:19;7.68;;;4.82;;
54945;SDS011;40846;44.788;20.486;2024-03-02T08:30:45;6.82;;;4.00;;
54945;SDS011;40846;44.788;20.486;2024-03-02T08:33:11;13.85;;;6.63;;
54945;SDS011;40846;44.788;20.486;2024-03-02T08:35:36;11.52;;;5.00;;
54945;SDS011;40846;44.788;20.486;2024-03-02T08:38:02;5.75;;;3.38;;
54945;SDS011;40846;44.788;20.486;2024-03-02T08:40:29;8.10;;;4.25;;
54945;SDS011;40846;44.788;20.486;2024-03-02T08:42:55;10.82;;;3.97;;
54945;SDS011;40846;44.788;20.486;2024-03-02T08:45:21;9.10;;;4.18;;
54945;SDS011;40846;44.788;20.486;2024-03-02T08:47:47;11.90;;;3.40;;
54945;SDS011;40846;44.788;20.486;2024-03-02T08:50:13;4.82;;;2.63;;
54945;SDS011;40846;44.788;20.486;2024-03-02T08:52:39;6.25;;;2.97;;
54945;SDS011;40846;44.788;20.486;2024-03-02T08:55:05;8.77;;;3.25;;
54945;SDS011;40846;44.788;20.486;2024-03-02T08:57:32;5.95;;;2.95;;
54945;SDS011;40846;44.788;20.486;2024-03-02T08:59:58;6.47;;;3.35;;
54945;SDS011;40846;44.788;20.486;2024-03-02T09:02:25;5.63;;;3.42;;
54945;SDS011;40846;44.788;20.486;2024-03-02T09:04:51;7.65;;;3.45;;
54945;SDS011;40846;44.788;20.486;2024-03-02T09:07:17;8.55;;;3.25;;
54945;SDS011;40846;44.788;20.486;2024-03-02T09:09:43;6.22;;;3.55;;
54945;SDS011;40846;44.788;20.486;2024-03-02T09:12:09;7.78;;;4.30;;
54945;SDS011;40846;44.788;20.486;2024-03-02T09:14:35;6.82;;;3.95;;
54945;SDS011;40846;44.788;20.486;2024-03-02T09:17:02;6.28;;;3.78;;
54945;SDS011;40846;44.788;20.486;2024-03-02T09:19:28;6.30;;;3.53;;
54945;SDS011;40846;44.788;20.486;2024-03-02T09:21:55;6.45;;;3.38;;
54945;SDS011;40846;44.788;20.486;2024-03-02T09:24:21;6.00;;;3.50;;
54945;SDS011;40846;44.788;20.486;2024-03-02T09:26:47;7.65;;;3.45;;
54945;SDS011;40846;44.788;20.486;2024-03-02T09:29:13;6.45;;;3.30;;
54945;SDS011;40846;44.788;20.486;2024-03-02T09:31:42;7.18;;;4.43;;
54945;SDS011;40846;44.788;20.486;2024-03-02T09:34:08;10.60;;;3.88;;
54945;SDS011;40846;44.788;20.486;2024-03-02T09:36:37;6.35;;;3.63;;
54945;SDS011;40846;44.788;20.486;2024-03-02T09:39:07;6.82;;;3.95;;
54945;SDS011;40846;44.788;20.486;2024-03-02T09:41:34;6.35;;;3.63;;
54945;SDS011;40846;44.788;20.486;2024-03-02T09:44:02;7.13;;;3.80;;
54945;SDS011;40846;44.788;20.486;2024-03-02T09:46:28;7.40;;;4.03;;
54945;SDS011;40846;44.788;20.486;2024-03-02T09:48:54;8.02;;;3.75;;
54945;SDS011;40846;44.788;20.486;2024-03-02T09:51:20;7.70;;;3.90;;
54945;SDS011;40846;44.788;20.486;2024-03-02T09:53:47;7.95;;;4.05;;
54945;SDS011;40846;44.788;20.486;2024-03-02T09:56:13;8.70;;;3.97;;
54945;SDS011;40846;44.788;20.486;2024-03-02T09:58:41;6.65;;;3.95;;
54945;SDS011;40846;44.788;20.486;2024-03-02T10:01:07;8.80;;;4.00;;
54945;SDS011;40846;44.788;20.486;2024-03-02T10:03:35;7.30;;;3.45;;
54945;SDS011;40846;44.788;20.486;2024-03-02T10:08:46;6.18;;;4.40;;
54945;SDS011;40846;44.788;20.486;2024-03-02T10:13:51;7.60;;;4.75;;
54945;SDS011;40846;44.788;20.486;2024-03-02T10:16:17;7.63;;;4.45;;
54945;SDS011;40846;44.788;20.486;2024-03-02T10:18:42;8.18;;;4.05;;
54945;SDS011;40846;44.788;20.486;2024-03-02T10:21:17;11.20;;;5.18;;
54945;SDS011;40846;44.788;20.486;2024-03-02T10:23:43;7.25;;;4.70;;
54945;SDS011;40846;44.788;20.486;2024-03-02T10:26:18;5.90;;;4.13;;
54945;SDS011;40846;44.788;20.486;2024-03-02T10:28:47;7.80;;;3.92;;
54945;SDS011;40846;44.788;20.486;2024-03-02T10:31:13;5.43;;;3.80;;
54945;SDS011;40846;44.788;20.486;2024-03-02T10:33:39;9.95;;;3.92;;
54945;SDS011;40846;44.788;20.486;2024-03-02T10:36:05;6.95;;;3.72;;
54945;SDS011;40846;44.788;20.486;2024-03-02T10:38:32;12.93;;;4.45;;
54945;SDS011;40846;44.788;20.486;2024-03-02T10:40:58;6.15;;;3.47;;
54945;SDS011;40846;44.788;20.486;2024-03-02T10:43:25;5.10;;;3.17;;
54945;SDS011;40846;44.788;20.486;2024-03-02T10:45:51;10.93;;;4.18;;
54945;SDS011;40846;44.788;20.486;2024-03-02T10:48:18;8.15;;;3.30;;
54945;SDS011;40846;44.788;20.486;2024-03-02T10:50:46;6.35;;;3.35;;
54945;SDS011;40846;44.788;20.486;2024-03-02T10:53:12;9.35;;;3.63;;
54945;SDS011;40846;44.788;20.486;2024-03-02T10:55:38;6.40;;;3.67;;
54945;SDS011;40846;44.788;20.486;2024-03-02T10:58:04;12.65;;;3.80;;
54945;SDS011;40846;44.788;20.486;2024-03-02T11:00:33;6.05;;;3.70;;
54945;SDS011;40846;44.788;20.486;2024-03-02T11:03:07;7.22;;;4.32;;
54945;SDS011;40846;44.788;20.486;2024-03-02T11:05:36;11.63;;;3.90;;
54945;SDS011;40846;44.788;20.486;2024-03-02T11:08:08;7.88;;;3.65;;
54945;SDS011;40846;44.788;20.486;2024-03-02T11:10:35;8.27;;;4.25;;
54945;SDS011;40846;44.788;20.486;2024-03-02T11:13:04;8.50;;;4.20;;
54945;SDS011;40846;44.788;20.486;2024-03-02T11:15:31;11.43;;;4.57;;
54945;SDS011;40846;44.788;20.486;2024-03-02T11:17:57;7.43;;;4.00;;
54945;SDS011;40846;44.788;20.486;2024-03-02T11:20:24;6.95;;;4.43;;
54945;SDS011;40846;44.788;20.486;2024-03-02T11:22:50;6.70;;;3.83;;
54945;SDS011;40846;44.788;20.486;2024-03-02T11:25:23;9.50;;;4.60;;
54945;SDS011;40846;44.788;20.486;2024-03-02T11:33:02;6.72;;;4.07;;
54945;SDS011;40846;44.788;20.486;2024-03-02T11:35:38;8.88;;;5.28;;
54945;SDS011;40846;44.788;20.486;2024-03-02T11:38:13;8.98;;;4.70;;
54945;SDS011;40846;44.788;20.486;2024-03-02T11:40:39;6.97;;;4.53;;
54945;SDS011;40846;44.788;20.486;2024-03-02T11:43:06;11.82;;;4.55;;
54945;SDS011;40846;44.788;20.486;2024-03-02T11:45:33;9.05;;;4.47;;
54945;SDS011;40846;44.788;20.486;2024-03-02T11:47:59;7.05;;;4.22;;
54945;SDS011;40846;44.788;20.486;2024-03-02T11:50:35;6.65;;;3.78;;
54945;SDS011;40846;44.788;20.486;2024-03-02T11:53:03;8.60;;;4.93;;
54945;SDS011;40846;44.788;20.486;2024-03-02T11:55:34;9.25;;;4.57;;
54945;SDS011;40846;44.788;20.486;2024-03-02T11:58:02;7.40;;;4.35;;
54945;SDS011;40846;44.788;20.486;2024-03-02T12:00:28;8.13;;;3.90;;
54945;SDS011;40846;44.788;20.486;2024-03-02T12:05:27;7.85;;;4.25;;
54945;SDS011;40846;44.788;20.486;2024-03-02T12:08:00;8.52;;;4.90;;
54945;SDS011;40846;44.788;20.486;2024-03-02T12:10:27;10.52;;;4.63;;
54945;SDS011;40846;44.788;20.486;2024-03-02T12:12:57;7.47;;;3.97;;
54945;SDS011;40846;44.788;20.486;2024-03-02T12:15:26;5.97;;;3.90;;
54945;SDS011;40846;44.788;20.486;2024-03-02T12:17:53;8.07;;;4.32;;
54945;SDS011;40846;44.788;20.486;2024-03-02T12:20:19;13.00;;;5.10;;
54945;SDS011;40846;44.788;20.486;2024-03-02T12:22:46;11.95;;;5.47;;
54945;SDS011;40846;44.788;20.486;2024-03-02T12:25:13;11.55;;;5.20;;
54945;SDS011;40846;44.788;20.486;2024-03-02T12:27:41;8.75;;;4.75;;
54945;SDS011;40846;44.788;20.486;2024-03-02T12:30:07;10.25;;;5.30;;
54945;SDS011;40846;44.788;20.486;2024-03-02T12:32:36;7.72;;;4.65;;
54945;SDS011;40846;44.788;20.486;2024-03-02T12:35:04;10.75;;;5.70;;
54945;SDS011;40846;44.788;20.486;2024-03-02T12:37:30;10.45;;;5.35;;
54945;SDS011;40846;44.788;20.486;2024-03-02T12:39:57;10.73;;;6.63;;
54945;SDS011;40846;44.788;20.486;2024-03-02T12:42:23;10.00;;;6.07;;
54945;SDS011;40846;44.788;20.486;2024-03-02T12:44:53;13.32;;;6.22;;
54945;SDS011;40846;44.788;20.486;2024-03-02T12:47:22;10.75;;;5.65;;
54945;SDS011;40846;44.788;20.486;2024-03-02T12:49:48;16.88;;;6.20;;
54945;SDS011;40846;44.788;20.486;2024-03-02T12:52:16;12.70;;;6.80;;
54945;SDS011;40846;44.788;20.486;2024-03-02T12:54:43;9.20;;;6.15;;
54945;SDS011;40846;44.788;20.486;2024-03-02T12:57:09;12.98;;;7.28;;
54945;SDS011;40846;44.788;20.486;2024-03-02T12:59:35;13.43;;;5.97;;
54945;SDS011;40846;44.788;20.486;2024-03-02T13:02:02;13.23;;;6.38;;
54945;SDS011;40846;44.788;20.486;2024-03-02T13:04:28;11.57;;;6.05;;
54945;SDS011;40846;44.788;20.486;2024-03-02T13:06:56;11.32;;;6.07;;
54945;SDS011;40846;44.788;20.486;2024-03-02T13:09:26;9.80;;;6.10;;
54945;SDS011;40846;44.788;20.486;2024-03-02T13:11:52;13.05;;;5.65;;
54945;SDS011;40846;44.788;20.486;2024-03-02T13:14:21;14.07;;;5.68;;
54945;SDS011;40846;44.788;20.486;2024-03-02T13:16:49;11.48;;;5.90;;
54945;SDS011;40846;44.788;20.486;2024-03-02T13:19:17;11.50;;;6.35;;
54945;SDS011;40846;44.788;20.486;2024-03-02T13:21:44;16.35;;;6.03;;
54945;SDS011;40846;44.788;20.486;2024-03-02T13:24:10;10.70;;;5.47;;
54945;SDS011;40846;44.788;20.486;2024-03-02T13:26:36;12.30;;;5.82;;
54945;SDS011;40846;44.788;20.486;2024-03-02T13:29:02;15.20;;;5.47;;
54945;SDS011;40846;44.788;20.486;2024-03-02T13:31:28;8.23;;;4.90;;
54945;SDS011;40846;44.788;20.486;2024-03-02T13:33:54;12.55;;;5.03;;
54945;SDS011;40846;44.788;20.486;2024-03-02T13:36:21;8.80;;;4.90;;
54945;SDS011;40846;44.788;20.486;2024-03-02T13:38:47;12.93;;;6.25;;
54945;SDS011;40846;44.788;20.486;2024-03-02T13:41:13;8.90;;;5.70;;
54945;SDS011;40846;44.788;20.486;2024-03-02T13:43:39;8.93;;;5.63;;
54945;SDS011;40846;44.788;20.486;2024-03-02T13:46:05;13.60;;;6.18;;
54945;SDS011;40846;44.788;20.486;2024-03-02T13:48:31;7.75;;;5.50;;
54945;SDS011;40846;44.788;20.486;2024-03-02T13:50:57;12.13;;;6.50;;
54945;SDS011;40846;44.788;20.486;2024-03-02T13:53:24;9.13;;;5.60;;
54945;SDS011;40846;44.788;20.486;2024-03-02T13:55:50;10.95;;;5.57;;
54945;SDS011;40846;44.788;20.486;2024-03-02T13:58:16;10.52;;;6.13;;
54945;SDS011;40846;44.788;20.486;2024-03-02T14:00:42;11.98;;;6.43;;
54945;SDS011;40846;44.788;20.486;2024-03-02T14:03:10;12.13;;;6.45;;
54945;SDS011;40846;44.788;20.486;2024-03-02T14:05:36;16.40;;;6.15;;
54945;SDS011;40846;44.788;20.486;2024-03-02T14:08:02;9.20;;;5.03;;
54945;SDS011;40846;44.788;20.486;2024-03-02T14:10:29;11.35;;;5.90;;
54945;SDS011;40846;44.788;20.486;2024-03-02T14:12:55;9.00;;;5.50;;
54945;SDS011;40846;44.788;20.486;2024-03-02T14:15:22;10.23;;;6.13;;
54945;SDS011;40846;44.788;20.486;2024-03-02T14:17:48;11.82;;;5.95;;
54945;SDS011;40846;44.788;20.486;2024-03-02T14:20:15;11.40;;;5.13;;
54945;SDS011;40846;44.788;20.486;2024-03-02T14:22:46;8.90;;;5.55;;
54945;SDS011;40846;44.788;20.486;2024-03-02T14:25:13;8.70;;;5.07;;
54945;SDS011;40846;44.788;20.486;2024-03-02T14:27:39;10.98;;;5.75;;
54945;SDS011;40846;44.788;20.486;2024-03-02T14:30:05;12.48;;;6.43;;
54945;SDS011;40846;44.788;20.486;2024-03-02T14:32:32;13.02;;;6.00;;
54945;SDS011;40846;44.788;20.486;2024-03-02T14:34:58;11.77;;;6.82;;
54945;SDS011;40846;44.788;20.486;2024-03-02T14:37:24;12.48;;;6.70;;
54945;SDS011;40846;44.788;20.486;2024-03-02T14:39:50;14.40;;;7.15;;
54945;SDS011;40846;44.788;20.486;2024-03-02T14:42:16;16.75;;;8.23;;